Time;durP1;ratioP1;P1;durP2;ratioP2;P2;SDS_P1;SDS_P2;PMS_P1;PMS_P2;Temp;Humidity;BMP_temperature;BMP_pressure;BME280_temperature;BME280_humidity;BME280_pressure;Samples;Min_cycle;Max_cycle;Signal;HPM_P1;HPM_P2
2023/01/29 00:01:09;;;;;;;2.27;2.17;;;;;;;2.41;88.16;96271.12;4371324;32;20184;-63
2023/01/29 00:03:35;;;;;;;3.40;3.20;;;;;;;2.49;87.75;96275.28;4378352;32;20185;-63
2023/01/29 00:06:05;;;;;;;2.73;2.53;;;;;;;2.43;87.83;96270.91;4375462;32;20276;-62
2023/01/29 00:08:35;;;;;;;2.10;2.10;;;;;;;2.28;88.39;96276.53;4368142;32;20230;-63
2023/01/29 00:11:05;;;;;;;3.27;2.83;;;;;;;2.06;89.32;96270.91;4393494;32;20279;-63
2023/01/29 00:13:31;;;;;;;2.40;2.30;;;;;;;2.04;89.83;96272.13;4378235;32;20304;-64
2023/01/29 00:15:57;;;;;;;0.93;0.93;;;;;;;2.05;90.25;96271.91;4377634;32;20337;-56
2023/01/29 00:18:23;;;;;;;3.03;2.93;;;;;;;4.79;100.00;96257.72;4376892;32;20210;-63
2023/01/29 00:20:49;;;;;;;1.80;1.70;;;;;;;4.48;91.31;96261.56;4370108;32;20347;-62
2023/01/29 00:23:14;;;;;;;2.67;2.50;;;;;;;3.66;83.97;96267.88;4368182;32;20276;-62
2023/01/29 00:25:41;;;;;;;3.37;3.13;;;;;;;3.00;84.60;96280.09;4363506;32;20236;-62
2023/01/29 00:28:06;;;;;;;2.40;2.17;;;;;;;2.57;86.86;96274.97;4373112;32;20261;-63
2023/01/29 00:30:31;;;;;;;4.07;2.83;;;;;;;2.50;87.27;96278.69;4378003;32;20273;-63
2023/01/29 00:32:57;;;;;;;3.37;3.00;;;;;;;2.50;87.32;96282.09;4373422;32;20185;-63
2023/01/29 00:35:22;;;;;;;3.30;3.20;;;;;;;2.19;88.30;96290.09;4370153;32;20199;-62
2023/01/29 00:37:47;;;;;;;3.27;3.07;;;;;;;1.74;89.98;96287.66;4363889;32;20234;-62
2023/01/29 00:40:13;;;;;;;2.70;2.50;;;;;;;1.73;90.64;96291.31;4375772;32;20197;-62
2023/01/29 00:45:22;;;;;;;4.20;4.00;;;;;;;1.87;90.35;96292.00;4378854;32;20271;-62
2023/01/29 00:47:47;;;;;;;2.83;2.73;;;;;;;1.61;91.41;96298.25;4382236;32;20308;-62
2023/01/29 00:50:13;;;;;;;3.53;3.33;;;;;;;1.69;91.22;96293.53;4385833;32;20201;-63
2023/01/29 00:52:41;;;;;;;2.63;2.53;;;;;;;1.75;91.39;96291.88;4368222;32;20208;-63
2023/01/29 00:55:09;;;;;;;2.33;2.23;;;;;;;1.87;90.78;96287.56;4369991;32;20223;-62
2023/01/29 00:57:35;;;;;;;4.00;3.80;;;;;;;1.88;89.81;96291.75;4366895;32;20337;-62
2023/01/29 01:00:02;;;;;;;2.07;2.03;;;;;;;1.62;89.45;96294.63;4372432;32;20315;-62
2023/01/29 01:05:16;;;;;;;3.17;2.97;;;;;;;1.53;89.56;96298.50;4368650;32;20210;-62
2023/01/29 01:07:43;;;;;;;7.20;2.50;;;;;;;1.62;90.12;96289.37;4384084;32;20333;-62
2023/01/29 01:10:21;;;;;;;3.87;3.67;;;;;;;1.76;89.50;96293.50;4381076;32;20268;-63
2023/01/29 01:13:07;;;;;;;2.97;2.87;;;;;;;1.74;89.37;96292.91;4369776;32;20472;-62
2023/01/29 01:15:37;;;;;;;3.67;3.47;;;;;;;1.63;89.72;96281.34;4365596;32;20348;-62
2023/01/29 01:18:03;;;;;;;2.53;2.43;;;;;;;1.69;89.89;96287.50;4372098;32;20301;-62
2023/01/29 01:20:32;;;;;;;2.43;2.23;;;;;;;1.76;89.44;96288.25;4372483;32;20358;-62
2023/01/29 01:22:57;;;;;;;2.53;2.40;;;;;;;1.79;89.60;96297.50;4378132;32;20281;-62
2023/01/29 01:25:24;;;;;;;2.43;2.33;;;;;;;1.84;88.95;96290.63;4372436;32;20386;-63
2023/01/29 01:27:54;;;;;;;2.87;2.77;;;;;;;1.77;89.31;96299.53;4384335;32;20360;-62
2023/01/29 01:30:20;;;;;;;3.57;3.33;;;;;;;1.60;89.80;96302.66;4370876;32;20347;-62
2023/01/29 01:32:45;;;;;;;1.80;1.80;;;;;;;1.47;89.37;96300.12;4373255;32;20316;-63
2023/01/29 01:35:13;;;;;;;2.33;2.23;;;;;;;1.33;90.18;96304.66;4369974;32;20300;-62
2023/01/29 01:37:39;;;;;;;3.15;2.83;;;;;;;1.22;91.34;96297.50;4371893;32;20255;-62
2023/01/29 01:40:11;;;;;;;3.23;3.13;;;;;;;1.44;91.09;96300.59;4365653;32;20200;-63
2023/01/29 01:42:38;;;;;;;3.20;2.93;;;;;;;1.65;90.36;96302.03;4364052;32;20339;-63
2023/01/29 01:45:06;;;;;;;2.33;2.23;;;;;;;1.79;89.53;96300.91;4378785;32;20281;-62
2023/01/29 01:47:32;;;;;;;2.80;2.70;;;;;;;1.72;89.45;96298.34;4371650;32;20285;-62
2023/01/29 01:50:06;;;;;;;2.40;2.30;;;;;;;1.65;90.02;96299.44;4374294;32;20284;-63
2023/01/29 01:52:32;;;;;;;2.53;2.43;;;;;;;1.66;89.82;96301.81;4381334;32;20188;-62
2023/01/29 01:54:58;;;;;;;2.20;2.10;;;;;;;1.58;89.68;96298.66;4372487;32;20297;-62
2023/01/29 01:57:26;;;;;;;2.87;2.70;;;;;;;1.77;89.34;96294.28;4367854;32;20272;-62
2023/01/29 01:59:57;;;;;;;3.37;3.27;;;;;;;2.00;88.32;96297.13;4365574;32;20277;-63
2023/01/29 02:10:42;;;;;;;2.37;2.20;;;;;;;2.03;86.91;96292.25;4366372;32;20343;-62
2023/01/29 02:13:08;;;;;;;2.83;2.57;;;;;;;2.05;87.04;96303.31;4377237;32;20308;-62
2023/01/29 02:15:33;;;;;;;2.70;2.60;;;;;;;1.97;87.13;96306.19;4370361;32;20281;-63
2023/01/29 02:17:59;;;;;;;3.37;3.17;;;;;;;1.85;87.19;96307.91;4369546;32;20194;-63
2023/01/29 02:20:24;;;;;;;2.83;2.73;;;;;;;1.71;87.89;96298.56;4371140;32;20185;-63
2023/01/29 02:23:07;;;;;;;2.27;2.20;;;;;;;1.65;88.26;96312.50;4367605;32;20189;-62
2023/01/29 02:25:41;;;;;;;2.20;2.10;;;;;;;1.67;87.02;96318.28;4364965;32;20306;-63
2023/01/29 02:28:35;;;;;;;3.43;3.20;;;;;;;1.71;87.30;96314.25;4373969;32;20369;-63
2023/01/29 02:31:11;;;;;;;1.77;1.60;;;;;;;1.91;86.92;96308.84;4374838;32;20381;-63
2023/01/29 02:34:19;;;;;;;1.47;1.47;;;;;;;2.00;86.22;96304.97;4379878;32;20395;-62
2023/01/29 02:37:06;;;;;;;3.03;2.73;;;;;;;2.00;85.99;96304.97;4369602;32;20284;-62
2023/01/29 02:39:40;;;;;;;3.20;3.00;;;;;;;1.80;86.57;96297.28;4373547;32;20286;-62
2023/01/29 02:42:38;;;;;;;2.70;2.60;;;;;;;2.00;86.57;96295.31;4372086;32;20303;-62
2023/01/29 02:45:17;;;;;;;2.03;1.93;;;;;;;1.97;86.50;96293.09;4366012;32;20284;-62
2023/01/29 02:47:57;;;;;;;2.30;2.20;;;;;;;1.67;86.84;96290.31;4373518;32;20318;-62
2023/01/29 02:50:41;;;;;;;2.27;2.17;;;;;;;1.72;86.43;96287.09;4386396;32;20280;-63
2023/01/29 02:53:15;;;;;;;2.47;1.93;;;;;;;1.84;85.44;96284.59;4371152;32;20318;-62
2023/01/29 02:55:52;;;;;;;1.37;1.33;;;;;;;1.79;85.30;96282.59;4370170;32;20295;-62
2023/01/29 02:58:20;;;;;;;3.10;2.57;;;;;;;1.67;85.83;96273.84;4371493;32;20281;-63
2023/01/29 03:00:48;;;;;;;3.00;2.80;;;;;;;1.87;85.64;96274.47;4383039;32;20291;-62
2023/01/29 03:03:18;;;;;;;2.30;2.20;;;;;;;1.79;85.56;96281.81;4372542;32;20285;-62
2023/01/29 03:05:53;;;;;;;2.50;2.40;;;;;;;1.97;85.25;96280.03;4378782;32;20273;-62
2023/01/29 03:08:41;;;;;;;1.37;1.37;;;;;;;1.88;85.07;96283.13;4396309;32;20289;-62
2023/01/29 03:11:12;;;;;;;2.30;2.20;;;;;;;2.08;84.20;96276.69;4366435;32;20332;-63
2023/01/29 03:13:46;;;;;;;2.30;2.20;;;;;;;2.18;83.44;96280.63;4367066;32;20323;-62
2023/01/29 03:16:34;;;;;;;2.77;2.57;;;;;;;2.27;82.80;96279.34;4369209;32;20297;-62
2023/01/29 03:19:33;;;;;;;1.40;1.40;;;;;;;2.23;82.10;96278.19;4384868;32;20303;-62
2023/01/29 03:22:03;;;;;;;1.80;1.80;;;;;;;2.21;82.26;96273.16;4366546;32;20281;-62
2023/01/29 03:32:47;;;;;;;1.30;1.30;;;;;;;2.28;81.27;96287.00;4374537;32;20390;-62
2023/01/29 03:35:20;;;;;;;3.40;3.20;;;;;;;2.11;81.55;96285.12;4369006;32;20359;-62
2023/01/29 03:37:48;;;;;;;2.60;2.43;;;;;;;2.08;82.18;96287.16;4368557;32;20272;-62
2023/01/29 03:40:14;;;;;;;1.80;1.80;;;;;;;2.04;82.96;96295.69;4373098;32;20295;-63
2023/01/29 03:43:10;;;;;;;2.83;2.73;;;;;;;1.99;83.17;96288.47;4379366;32;20286;-62
2023/01/29 03:45:59;;;;;;;1.23;1.23;;;;;;;2.14;82.89;96295.16;4345254;32;20358;-62
2023/01/29 03:48:45;;;;;;;2.27;2.17;;;;;;;2.13;83.14;96290.94;4379391;32;20276;-62
2023/01/29 03:51:25;;;;;;;1.77;1.77;;;;;;;2.03;82.49;96287.03;4371873;32;20321;-62
2023/01/29 03:53:57;;;;;;;1.73;1.73;;;;;;;1.81;83.03;96280.59;4388432;32;20315;-62
2023/01/29 03:56:34;;;;;;;1.50;1.40;;;;;;;2.17;82.42;96279.03;4365183;32;20276;-62
2023/01/29 03:59:19;;;;;;;1.40;1.40;;;;;;;2.21;81.71;96273.16;4372182;32;20285;-62
2023/01/29 04:01:50;;;;;;;3.23;2.67;;;;;;;2.38;81.26;96270.75;4372441;32;20281;-62
2023/01/29 04:04:25;;;;;;;2.20;2.10;;;;;;;2.29;81.80;96258.97;4384184;32;20288;-62
2023/01/29 04:06:57;;;;;;;2.40;2.30;;;;;;;2.26;81.67;96256.81;4376622;32;20290;-62
2023/01/29 04:09:43;;;;;;;2.20;2.10;;;;;;;2.14;82.66;96253.28;4369501;32;20280;-62
2023/01/29 04:12:16;;;;;;;2.00;1.90;;;;;;;2.32;82.54;96248.06;4359001;32;20290;-62
2023/01/29 04:14:41;;;;;;;1.67;1.67;;;;;;;2.00;83.49;96253.44;4375276;32;20287;-61
2023/01/29 04:17:22;;;;;;;3.13;2.93;;;;;;;1.96;84.21;96251.47;4350309;32;20277;-61
2023/01/29 04:19:49;;;;;;;1.97;1.97;;;;;;;2.24;83.23;96254.41;4346389;32;20270;-61
2023/01/29 04:22:25;;;;;;;2.17;2.07;;;;;;;2.25;82.93;96255.22;4352717;32;20264;-61
2023/01/29 04:24:50;;;;;;;2.30;2.20;;;;;;;2.29;82.60;96256.34;4377265;32;20375;-64
2023/01/29 04:27:20;;;;;;;2.73;2.63;;;;;;;2.17;83.27;96253.66;4352535;32;20371;-64
2023/01/29 04:30:07;;;;;;;3.00;2.87;;;;;;;2.36;82.80;96251.84;4359789;32;20199;-62
2023/01/29 04:32:47;;;;;;;2.50;2.03;;;;;;;2.22;83.08;96256.44;4351047;32;20291;-62
2023/01/29 04:35:39;;;;;;;2.40;2.20;;;;;;;2.37;83.14;96250.84;4356667;32;20301;-62
2023/01/29 04:38:31;;;;;;;2.40;2.20;;;;;;;2.43;82.48;96257.81;4352911;32;20281;-62
2023/01/29 04:41:24;;;;;;;2.03;1.97;;;;;;;2.24;83.29;96259.66;4357341;32;20365;-62
2023/01/29 04:44:17;;;;;;;2.13;2.03;;;;;;;1.91;84.50;96265.19;4376936;32;20373;-63
2023/01/29 04:47:14;;;;;;;2.70;2.60;;;;;;;2.03;83.95;96258.25;4358282;32;20306;-62
2023/01/29 04:50:06;;;;;;;2.20;2.07;;;;;;;1.97;83.80;96260.91;4337299;32;20301;-62
2023/01/29 04:52:51;;;;;;;1.60;1.50;;;;;;;2.16;82.57;96259.91;4335991;32;20334;-62
2023/01/29 04:55:39;;;;;;;3.27;3.07;;;;;;;2.16;81.76;96266.97;4370637;32;20280;-63
2023/01/29 04:58:12;;;;;;;2.00;1.90;;;;;;;2.02;82.23;96253.22;4370473;32;20281;-62
2023/01/29 05:00:45;;;;;;;1.17;1.17;;;;;;;2.05;82.46;96256.22;4373292;32;20324;-62
2023/01/29 05:03:13;;;;;;;1.67;1.67;;;;;;;1.91;81.47;96253.91;4315412;32;20290;-62
2023/01/29 05:05:43;;;;;;;1.63;1.53;;;;;;;2.20;79.99;96255.06;4363617;32;20352;-62
2023/01/29 05:08:14;;;;;;;3.00;2.80;;;;;;;2.28;79.44;96244.31;4364685;32;20353;-62
2023/01/29 05:10:41;;;;;;;3.27;3.07;;;;;;;2.29;79.05;96248.50;4344507;32;20393;-62
2023/01/29 05:13:22;;;;;;;2.57;2.47;;;;;;;2.34;80.25;96259.94;4350333;32;20294;-63
2023/01/29 05:16:06;;;;;;;3.53;3.27;;;;;;;2.13;81.88;96260.34;4368868;32;20381;-62
2023/01/29 05:18:34;;;;;;;3.03;2.87;;;;;;;2.37;81.65;96263.94;4359058;32;20323;-61
2023/01/29 05:21:03;;;;;;;2.03;1.97;;;;;;;2.39;81.31;96261.91;4368030;32;20300;-62
2023/01/29 05:23:29;;;;;;;1.83;1.80;;;;;;;2.35;81.24;96265.97;4318182;32;20303;-62
2023/01/29 05:25:55;;;;;;;2.70;1.67;;;;;;;1.70;81.64;96273.41;4331529;32;20363;-62
2023/01/29 05:28:22;;;;;;;1.90;1.80;;;;;;;1.93;81.72;96278.06;4366915;32;20188;-62
2023/01/29 05:30:51;;;;;;;1.37;1.37;;;;;;;1.93;80.39;96283.28;4351039;32;20292;-62
2023/01/29 05:33:29;;;;;;;2.43;2.07;;;;;;;2.21;78.82;96290.69;4341618;32;20285;-62
2023/01/29 05:35:57;;;;;;;2.03;1.63;;;;;;;2.27;79.27;96290.63;4371888;32;20306;-62
2023/01/29 05:38:25;;;;;;;2.47;2.37;;;;;;;2.22;80.24;96287.06;4340520;32;20368;-62
2023/01/29 05:40:50;;;;;;;2.37;2.23;;;;;;;2.39;80.29;96293.31;4361285;32;20362;-62
2023/01/29 05:43:18;;;;;;;4.07;3.10;;;;;;;2.14;81.86;96295.97;4359158;32;20307;-62
2023/01/29 05:45:55;;;;;;;2.93;2.83;;;;;;;2.30;81.85;96294.59;4366913;32;20282;-62
2023/01/29 05:48:23;;;;;;;2.87;2.67;;;;;;;2.10;83.18;96304.47;4356844;32;20385;-62
2023/01/29 05:50:48;;;;;;;3.33;2.57;;;;;;;2.25;82.09;96303.13;4356474;32;20316;-62
2023/01/29 05:53:15;;;;;;;3.40;2.40;;;;;;;2.02;83.37;96306.34;4364828;32;20291;-62
2023/01/29 05:55:44;;;;;;;2.83;2.17;;;;;;;2.12;83.35;96305.84;4381982;32;20184;-62
2023/01/29 05:58:10;;;;;;;3.47;3.27;;;;;;;2.06;83.17;96310.16;4346184;32;20306;-62
2023/01/29 06:00:39;;;;;;;2.73;2.53;;;;;;;2.22;82.51;96300.12;4337792;32;20278;-62
2023/01/29 06:03:07;;;;;;;2.37;2.17;;;;;;;2.35;81.83;96292.94;4355359;32;20185;-62
2023/01/29 06:05:36;;;;;;;2.90;2.80;;;;;;;2.21;81.82;96295.91;4371209;32;20287;-62
2023/01/29 06:08:02;;;;;;;2.10;2.00;;;;;;;2.21;81.67;96290.69;4362384;32;20304;-62
2023/01/29 06:10:27;;;;;;;3.77;3.57;;;;;;;2.02;82.84;96290.66;4347611;32;20285;-62
2023/01/29 06:12:54;;;;;;;2.50;2.40;;;;;;;2.08;82.97;96299.44;4345567;32;20226;-64
2023/01/29 06:15:20;;;;;;;1.93;1.83;;;;;;;2.01;82.10;96294.28;4366927;32;20251;-62
2023/01/29 06:17:46;;;;;;;2.17;2.10;;;;;;;1.78;81.82;96290.66;4367479;32;20280;-62
2023/01/29 06:20:13;;;;;;;1.60;1.50;;;;;;;1.89;81.77;96292.56;4358473;32;20345;-62
2023/01/29 06:22:38;;;;;;;1.30;1.30;;;;;;;1.67;82.34;96286.91;4357381;32;20247;-62
2023/01/29 06:25:06;;;;;;;3.00;2.80;;;;;;;1.56;82.31;96295.47;4337004;32;20324;-62
2023/01/29 06:27:31;;;;;;;1.93;1.83;;;;;;;1.76;82.42;96287.47;4360215;32;20234;-62
2023/01/29 06:30:03;;;;;;;1.70;1.70;;;;;;;1.68;82.70;96291.13;4383729;32;20279;-62
2023/01/29 06:32:29;;;;;;;2.37;2.27;;;;;;;1.89;80.95;96293.38;4379383;32;20193;-62
2023/01/29 06:34:56;;;;;;;3.53;2.47;;;;;;;1.91;80.94;96291.34;4384902;32;20357;-62
2023/01/29 06:37:21;;;;;;;2.23;2.13;;;;;;;1.77;81.55;96295.09;4368731;32;20328;-62
2023/01/29 06:39:46;;;;;;;2.03;1.73;;;;;;;1.90;81.32;96302.03;4361140;32;20284;-62
2023/01/29 06:42:13;;;;;;;2.43;2.33;;;;;;;1.97;80.59;96300.97;4359296;32;20190;-62
2023/01/29 06:44:39;;;;;;;1.93;1.83;;;;;;;2.18;80.28;96306.81;4368883;32;20235;-62
2023/01/29 06:47:05;;;;;;;2.20;2.10;;;;;;;2.32;78.54;96308.28;4383206;32;20184;-62
2023/01/29 06:49:33;;;;;;;3.50;3.20;;;;;;;2.22;78.83;96302.75;4363851;32;20353;-62
2023/01/29 06:52:00;;;;;;;2.43;2.23;;;;;;;2.26;78.39;96298.69;4384389;32;20311;-61
2023/01/29 06:54:26;;;;;;;2.47;2.37;;;;;;;2.38;77.87;96300.38;4357740;32;20278;-62
2023/01/29 06:56:53;;;;;;;2.60;2.40;;;;;;;2.46;77.70;96303.72;4350999;32;20292;-61
2023/01/29 06:59:19;;;;;;;1.70;1.60;;;;;;;2.19;78.35;96303.97;4320943;32;20351;-62
2023/01/29 07:01:44;;;;;;;2.27;2.07;;;;;;;2.17;78.64;96310.44;4360606;32;20418;-61
2023/01/29 07:04:10;;;;;;;4.57;1.30;;;;;;;1.98;78.40;96307.78;4363499;32;20288;-61
2023/01/29 07:06:36;;;;;;;2.70;2.50;;;;;;;1.99;78.85;96301.53;4347707;32;20196;-62
2023/01/29 07:09:03;;;;;;;2.07;2.07;;;;;;;2.11;78.46;96303.44;4362870;32;20181;-62
2023/01/29 07:11:28;;;;;;;0.60;0.60;;;;;;;2.16;78.88;96301.00;4354910;32;20292;-62
2023/01/29 07:13:54;;;;;;;1.23;1.23;;;;;;;2.31;77.91;96304.84;4348199;32;20376;-62
2023/01/29 07:16:22;;;;;;;3.93;3.17;;;;;;;2.39;77.46;96295.94;4370871;32;20280;-62
2023/01/29 07:18:48;;;;;;;1.87;1.77;;;;;;;2.25;77.60;96302.31;4325438;32;20257;-62
2023/01/29 07:21:15;;;;;;;2.43;2.20;;;;;;;2.06;77.72;96304.91;4353921;32;20312;-62
2023/01/29 07:23:40;;;;;;;1.53;1.53;;;;;;;2.13;77.39;96309.28;4331955;32;20285;-62
2023/01/29 07:26:09;;;;;;;2.17;2.07;;;;;;;2.22;76.64;96292.28;4345907;32;20308;-61
2023/01/29 07:28:40;;;;;;;1.60;1.60;;;;;;;2.35;76.51;96282.47;4354778;32;20180;-61
2023/01/29 07:31:07;;;;;;;1.33;1.33;;;;;;;2.36;76.53;96283.28;4357268;32;20269;-62
2023/01/29 07:33:33;;;;;;;1.53;1.43;;;;;;;2.28;77.06;96286.19;4365805;32;20272;-62
2023/01/29 07:36:06;;;;;;;1.40;1.40;;;;;;;1.93;77.98;96291.13;4358586;32;20328;-62
2023/01/29 07:38:31;;;;;;;1.43;1.37;;;;;;;1.66;78.10;96283.50;4366233;32;20275;-62
2023/01/29 07:40:58;;;;;;;1.50;1.47;;;;;;;1.89;78.18;96275.06;4377168;32;20294;-61
2023/01/29 07:43:23;;;;;;;0.63;0.63;;;;;;;1.81;78.34;96280.59;4352883;32;20223;-61
2023/01/29 07:45:54;;;;;;;5.67;3.17;;;;;;;2.08;77.77;96278.50;4345787;32;20285;-62
2023/01/29 07:48:19;;;;;;;3.40;3.10;;;;;;;2.13;77.72;96273.44;4370216;32;20192;-62
2023/01/29 07:50:54;;;;;;;1.43;1.43;;;;;;;2.35;76.90;96271.19;4332058;32;20304;-62
2023/01/29 07:53:21;;;;;;;1.40;1.33;;;;;;;2.17;76.67;96266.75;4341859;32;20196;-62
2023/01/29 07:55:46;;;;;;;1.70;1.60;;;;;;;2.37;76.65;96263.94;4324607;32;20285;-62
2023/01/29 07:58:11;;;;;;;1.07;1.07;;;;;;;2.45;76.27;96258.41;4324841;32;20335;-63
2023/01/29 08:00:37;;;;;;;1.90;1.80;;;;;;;2.39;76.18;96277.59;4341047;32;20208;-62
2023/01/29 08:03:19;;;;;;;2.03;1.83;;;;;;;2.38;75.97;96276.00;4331160;32;20181;-62
2023/01/29 08:05:45;;;;;;;1.70;1.60;;;;;;;2.26;75.84;96265.47;4353561;32;20184;-62
2023/01/29 08:08:12;;;;;;;1.47;1.37;;;;;;;2.31;75.61;96270.03;4329129;32;20431;-62
2023/01/29 08:10:39;;;;;;;1.77;1.67;;;;;;;2.35;74.87;96268.59;4344854;32;20343;-63
2023/01/29 08:13:06;;;;;;;0.87;0.87;;;;;;;2.21;75.71;96270.53;4357885;32;20292;-62
2023/01/29 08:15:33;;;;;;;3.57;1.03;;;;;;;2.06;75.37;96267.47;4340561;32;20371;-62
2023/01/29 08:18:02;;;;;;;1.03;1.03;;;;;;;1.70;75.80;96268.19;4341654;32;20205;-62
2023/01/29 08:20:28;;;;;;;0.83;0.83;;;;;;;1.78;75.90;96275.78;4353427;32;20286;-62
2023/01/29 08:23:01;;;;;;;2.03;1.37;;;;;;;1.94;75.22;96274.41;4361595;32;20284;-62
2023/01/29 08:25:30;;;;;;;1.20;1.20;;;;;;;1.91;75.46;96265.19;4343091;32;20289;-62
2023/01/29 08:27:56;;;;;;;1.63;1.63;;;;;;;2.03;75.17;96266.09;4355264;32;20288;-62
2023/01/29 08:30:33;;;;;;;1.57;1.47;;;;;;;1.84;75.27;96274.13;4343365;32;20398;-62
2023/01/29 08:32:59;;;;;;;1.47;1.37;;;;;;;2.01;74.92;96280.41;4362702;32;20365;-62
2023/01/29 08:35:26;;;;;;;1.07;1.07;;;;;;;2.01;74.54;96280.41;4360491;32;20284;-62
2023/01/29 08:38:00;;;;;;;1.23;1.23;;;;;;;1.96;74.48;96288.09;4367813;32;20289;-62
2023/01/29 08:40:32;;;;;;;1.43;1.43;;;;;;;1.86;75.51;96282.56;4359595;32;20281;-62
2023/01/29 08:43:04;;;;;;;1.90;1.80;;;;;;;1.85;75.14;96291.41;4348427;32;20276;-62
2023/01/29 08:45:52;;;;;;;1.73;1.67;;;;;;;1.88;75.28;96299.63;4334513;32;20278;-62
2023/01/29 08:48:20;;;;;;;1.50;1.50;;;;;;;1.74;74.60;96300.75;4349299;32;20346;-61
2023/01/29 08:50:47;;;;;;;1.10;1.10;;;;;;;1.86;74.13;96306.91;4343960;32;20344;-62
2023/01/29 08:53:23;;;;;;;1.27;1.27;;;;;;;1.86;74.74;96313.94;4352508;32;20297;-62
2023/01/29 08:56:04;;;;;;;1.20;1.17;;;;;;;2.08;74.47;96311.75;4331210;32;20289;-62
2023/01/29 08:58:32;;;;;;;2.17;2.07;;;;;;;2.16;73.97;96316.69;4370647;32;20338;-62
2023/01/29 09:01:07;;;;;;;1.50;1.50;;;;;;;2.30;73.21;96311.09;4339338;32;20290;-62
2023/01/29 09:03:33;;;;;;;1.77;1.67;;;;;;;2.17;74.00;96315.69;4358607;32;20406;-62
2023/01/29 09:05:58;;;;;;;0.77;0.77;;;;;;;2.19;72.85;96318.88;4342810;32;20286;-62
2023/01/29 09:08:23;;;;;;;2.23;2.13;;;;;;;2.11;73.78;96327.00;4358335;32;20222;-62
2023/01/29 09:10:50;;;;;;;3.00;2.90;;;;;;;2.00;73.68;96320.66;4371769;32;20184;-62
2023/01/29 09:13:16;;;;;;;1.23;1.23;;;;;;;2.12;73.88;96326.78;4354254;32;20259;-63
2023/01/29 09:15:41;;;;;;;0.90;0.90;;;;;;;2.20;73.65;96325.72;4370594;32;20298;-53
2023/01/29 09:18:07;;;;;;;20.87;1.40;;;;;;;5.89;100.00;96309.16;4352229;32;20216;-55
2023/01/29 09:20:40;;;;;;;1.03;1.03;;;;;;;6.62;88.42;96315.25;4331677;32;20189;-51
2023/01/29 09:23:11;;;;;;;1.47;1.37;;;;;;;7.44;72.26;96321.25;4339718;32;20307;-50
2023/01/29 09:25:38;;;;;;;1.77;1.67;;;;;;;8.38;67.01;96325.25;4377942;32;20281;-54
2023/01/29 09:28:05;;;;;;;1.67;1.57;;;;;;;8.92;60.86;96326.66;4341692;32;20351;-52
2023/01/29 09:30:37;;;;;;;1.20;1.20;;;;;;;9.39;56.80;96333.69;4333849;32;20347;-54
2023/01/29 09:33:06;;;;;;;1.77;1.67;;;;;;;9.99;54.08;96330.38;4343415;32;20280;-52
2023/01/29 09:35:35;;;;;;;2.10;1.93;;;;;;;9.58;52.76;96340.09;4353043;32;20281;-51
2023/01/29 09:38:01;;;;;;;1.83;1.73;;;;;;;10.10;52.13;96336.50;4352121;32;20339;-53
2023/01/29 09:40:38;;;;;;;1.90;1.57;;;;;;;9.98;50.91;96342.03;4349696;32;20205;-53
2023/01/29 09:43:15;;;;;;;1.13;1.13;;;;;;;10.14;50.18;96337.56;4354837;32;20195;-55
2023/01/29 09:45:59;;;;;;;1.23;1.23;;;;;;;10.29;50.15;96342.87;4352893;32;20192;-50
2023/01/29 09:48:28;;;;;;;1.83;1.70;;;;;;;10.21;48.87;96347.91;4345108;32;20209;-54
2023/01/29 09:50:59;;;;;;;1.80;1.70;;;;;;;10.04;49.24;96356.09;4339208;32;20203;-52
2023/01/29 09:53:59;;;;;;;2.30;2.20;;;;;;;9.99;49.54;96361.38;4359407;32;20253;-52
2023/01/29 09:56:27;;;;;;;3.53;2.53;;;;;;;10.00;49.18;96362.97;4340042;32;20189;-52
2023/01/29 09:59:01;;;;;;;3.00;2.70;;;;;;;9.91;49.15;96348.66;4347068;32;20200;-54
2023/01/29 10:01:35;;;;;;;1.97;1.87;;;;;;;10.10;48.67;96349.75;4361904;32;20243;-54
2023/01/29 10:04:22;;;;;;;2.00;1.90;;;;;;;9.87;48.34;96347.59;4352598;32;20248;-55
2023/01/29 10:06:55;;;;;;;3.43;1.67;;;;;;;9.81;48.94;96343.34;4355654;32;20193;-53
2023/01/29 10:09:48;;;;;;;2.50;2.00;;;;;;;10.19;48.09;96342.87;4332016;32;20260;-54
2023/01/29 10:12:52;;;;;;;1.93;1.83;;;;;;;10.52;47.23;96338.09;4340963;32;20302;-53
2023/01/29 10:15:53;;;;;;;1.60;1.57;;;;;;;11.14;46.49;96337.69;4345136;32;20250;-54
2023/01/29 10:18:43;;;;;;;1.43;1.33;;;;;;;11.44;45.42;96339.41;4323336;32;20196;-55
2023/01/29 10:21:18;;;;;;;1.70;1.60;;;;;;;11.92;44.80;96342.34;4355431;32;20189;-52
2023/01/29 10:24:01;;;;;;;1.43;1.33;;;;;;;12.04;44.05;96326.87;4354088;32;20203;-55
2023/01/29 10:26:28;;;;;;;1.50;1.40;;;;;;;12.30;43.97;96327.44;4328658;32;20208;-55
2023/01/29 10:28:58;;;;;;;2.97;2.77;;;;;;;12.31;44.34;96324.50;4337092;32;20254;-55
2023/01/29 10:31:35;;;;;;;1.93;1.83;;;;;;;12.30;43.30;96324.78;4356129;32;20211;-55
2023/01/29 10:34:30;;;;;;;1.53;1.20;;;;;;;12.38;43.86;96327.66;4331544;32;20256;-57
2023/01/29 10:37:01;;;;;;;2.43;2.23;;;;;;;12.32;43.87;96326.09;4363976;32;20181;-55
2023/01/29 10:39:29;;;;;;;2.33;2.20;;;;;;;12.20;43.45;96314.22;4352456;32;20204;-55
2023/01/29 10:42:13;;;;;;;1.10;1.10;;;;;;;12.23;43.92;96321.66;4325335;32;20226;-54
2023/01/29 10:45:15;;;;;;;2.00;1.90;;;;;;;12.15;43.66;96316.94;4347448;32;20233;-54
2023/01/29 10:48:08;;;;;;;1.33;1.33;;;;;;;12.14;49.19;96323.31;4336422;32;20239;-53
2023/01/29 10:51:05;;;;;;;2.17;2.00;;;;;;;12.18;51.15;96327.81;4360825;32;20181;-55
2023/01/29 10:53:49;;;;;;;1.63;1.53;;;;;;;12.04;51.55;96316.22;4364402;32;20185;-52
2023/01/29 10:56:47;;;;;;;1.97;1.77;;;;;;;12.09;55.25;96312.72;4367756;32;20258;-54
2023/01/29 10:59:55;;;;;;;2.37;2.27;;;;;;;12.20;54.98;96316.91;4339798;32;20212;-63
2023/01/29 11:02:21;;;;;;;2.17;2.07;;;;;;;9.07;48.61;96325.13;4339281;32;20349;-63
2023/01/29 11:04:47;;;;;;;2.57;2.43;;;;;;;8.00;51.13;96323.62;4355055;32;20195;-63
2023/01/29 11:07:16;;;;;;;2.20;2.10;;;;;;;6.36;55.42;96322.81;4345321;32;20208;-63
2023/01/29 11:10:13;;;;;;;1.77;1.73;;;;;;;5.71;58.58;96322.53;4346127;32;20280;-62
2023/01/29 11:12:42;;;;;;;2.10;2.00;;;;;;;5.16;60.78;96331.00;4353651;32;20176;-63
2023/01/29 11:15:31;;;;;;;3.23;1.93;;;;;;;4.58;62.93;96320.59;4370348;32;20316;-63
2023/01/29 11:18:14;;;;;;;2.53;2.13;;;;;;;4.01;65.58;96321.19;4325841;32;20338;-63
2023/01/29 11:20:45;;;;;;;1.30;1.30;;;;;;;4.37;64.95;96316.72;4361401;32;20356;-63
2023/01/29 11:23:32;;;;;;;1.67;1.63;;;;;;;4.28;65.66;96321.56;4370721;32;20323;-63
2023/01/29 11:25:59;;;;;;;2.53;2.33;;;;;;;3.85;66.76;96313.19;4365543;32;20292;-64
2023/01/29 11:28:38;;;;;;;1.73;1.63;;;;;;;3.54;68.52;96316.88;4338875;32;20276;-62
2023/01/29 11:31:34;;;;;;;1.67;1.57;;;;;;;3.62;68.77;96311.31;4363070;32;20300;-63
2023/01/29 11:34:21;;;;;;;1.70;1.60;;;;;;;3.40;70.00;96303.94;4339689;32;20281;-63
2023/01/29 11:36:56;;;;;;;2.90;2.80;;;;;;;3.39;70.35;96304.97;4356273;32;20277;-63
2023/01/29 11:39:23;;;;;;;1.63;1.60;;;;;;;3.07;71.37;96301.00;4351199;32;20293;-63
2023/01/29 11:41:59;;;;;;;2.27;2.07;;;;;;;3.17;71.20;96306.47;4350611;32;20311;-63
2023/01/29 11:44:32;;;;;;;1.30;1.27;;;;;;;3.06;71.74;96305.44;4329472;32;20301;-62
2023/01/29 11:47:14;;;;;;;2.27;2.17;;;;;;;2.87;72.34;96300.44;4328355;32;20288;-63
2023/01/29 11:49:46;;;;;;;1.83;1.83;;;;;;;2.82;72.79;96298.47;4369957;32;20289;-63
2023/01/29 11:52:14;;;;;;;1.73;1.63;;;;;;;2.87;73.39;96298.63;4358476;32;20284;-63
2023/01/29 11:55:17;;;;;;;1.53;1.53;;;;;;;2.79;72.67;96288.44;4372928;32;20314;-63
2023/01/29 11:58:15;;;;;;;2.23;2.13;;;;;;;2.81;73.02;96270.66;4339120;32;20299;-63
2023/01/29 12:00:45;;;;;;;1.70;1.60;;;;;;;3.00;72.27;96235.53;4317279;32;20338;-63
2023/01/29 12:03:28;;;;;;;1.73;1.70;;;;;;;3.13;71.70;96229.31;4337744;32;20326;-63
2023/01/29 12:06:02;;;;;;;2.37;2.27;;;;;;;3.35;72.07;96214.66;4345542;32;20367;-62
2023/01/29 12:08:38;;;;;;;2.00;1.90;;;;;;;3.54;71.32;96209.31;4351760;32;20296;-63
2023/01/29 12:11:33;;;;;;;2.97;2.77;;;;;;;3.15;72.17;96208.13;4334524;32;20285;-63
2023/01/29 12:14:01;;;;;;;2.93;2.80;;;;;;;3.17;72.90;96206.06;4343425;32;20341;-63
2023/01/29 12:16:31;;;;;;;2.63;2.17;;;;;;;3.34;72.49;96207.00;4358674;32;20284;-62
2023/01/29 12:19:29;;;;;;;2.20;2.00;;;;;;;3.52;71.49;96206.16;4317832;32;20289;-64
2023/01/29 12:21:59;;;;;;;5.60;2.17;;;;;;;3.64;71.06;96201.69;4342007;32;20308;-62
2023/01/29 12:24:52;;;;;;;3.50;2.90;;;;;;;3.42;70.70;96204.06;4366369;32;20284;-66
2023/01/29 12:27:29;;;;;;;4.57;1.60;;;;;;;3.66;69.80;96210.94;4354579;32;20292;-64
2023/01/29 12:30:25;;;;;;;2.23;2.23;;;;;;;3.96;68.69;96207.38;4358509;32;20307;-64
2023/01/29 12:33:04;;;;;;;2.40;2.30;;;;;;;3.62;69.88;96217.66;4338568;32;20352;-62